sensor_id;sensor_type;location;lat;lon;timestamp;P1;durP1;ratioP1;P2;durP2;ratioP2
8478;SDS011;4276;49.354;6.804;2023-12-29T00:01:32;4.10;;;3.75;;
8478;SDS011;4276;49.354;6.804;2023-12-29T00:03:59;3.42;;;3.22;;
8478;SDS011;4276;49.354;6.804;2023-12-29T00:06:27;4.05;;;3.60;;
8478;SDS011;4276;49.354;6.804;2023-12-29T00:08:54;4.40;;;4.10;;
8478;SDS011;4276;49.354;6.804;2023-12-29T00:11:21;4.10;;;3.80;;
8478;SDS011;4276;49.354;6.804;2023-12-29T00:13:47;3.92;;;3.53;;
8478;SDS011;4276;49.354;6.804;2023-12-29T00:16:14;3.35;;;3.15;;
8478;SDS011;4276;49.354;6.804;2023-12-29T00:18:41;4.63;;;3.50;;
8478;SDS011;4276;49.354;6.804;2023-12-29T00:21:08;3.33;;;3.03;;
8478;SDS011;4276;49.354;6.804;2023-12-29T00:23:35;4.07;;;3.78;;
8478;SDS011;4276;49.354;6.804;2023-12-29T00:26:01;3.65;;;3.35;;
8478;SDS011;4276;49.354;6.804;2023-12-29T00:28:28;3.60;;;3.30;;
8478;SDS011;4276;49.354;6.804;2023-12-29T00:30:55;3.92;;;3.63;;
8478;SDS011;4276;49.354;6.804;2023-12-29T00:33:28;4.18;;;3.88;;
8478;SDS011;4276;49.354;6.804;2023-12-29T00:35:55;4.07;;;3.78;;
8478;SDS011;4276;49.354;6.804;2023-12-29T00:38:22;3.95;;;3.40;;
8478;SDS011;4276;49.354;6.804;2023-12-29T00:40:48;3.85;;;3.55;;
8478;SDS011;4276;49.354;6.804;2023-12-29T00:43:15;3.60;;;3.30;;
8478;SDS011;4276;49.354;6.804;2023-12-29T00:45:41;3.97;;;3.42;;
8478;SDS011;4276;49.354;6.804;2023-12-29T00:48:08;4.05;;;3.67;;
8478;SDS011;4276;49.354;6.804;2023-12-29T00:50:36;3.80;;;3.30;;
8478;SDS011;4276;49.354;6.804;2023-12-29T00:53:03;4.15;;;3.75;;
8478;SDS011;4276;49.354;6.804;2023-12-29T00:55:30;3.90;;;3.60;;
8478;SDS011;4276;49.354;6.804;2023-12-29T00:57:57;3.72;;;3.42;;
8478;SDS011;4276;49.354;6.804;2023-12-29T01:00:24;4.53;;;3.30;;
8478;SDS011;4276;49.354;6.804;2023-12-29T01:02:50;4.07;;;3.50;;
8478;SDS011;4276;49.354;6.804;2023-12-29T01:05:17;3.72;;;3.42;;
8478;SDS011;4276;49.354;6.804;2023-12-29T01:07:43;3.53;;;3.28;;
8478;SDS011;4276;49.354;6.804;2023-12-29T01:10:13;3.90;;;3.60;;
8478;SDS011;4276;49.354;6.804;2023-12-29T01:12:40;4.63;;;3.78;;
8478;SDS011;4276;49.354;6.804;2023-12-29T01:15:06;3.58;;;3.38;;
8478;SDS011;4276;49.354;6.804;2023-12-29T01:17:33;3.60;;;3.40;;
8478;SDS011;4276;49.354;6.804;2023-12-29T01:19:59;3.40;;;3.10;;
8478;SDS011;4276;49.354;6.804;2023-12-29T01:22:26;3.33;;;3.10;;
8478;SDS011;4276;49.354;6.804;2023-12-29T01:24:53;3.22;;;3.03;;
8478;SDS011;4276;49.354;6.804;2023-12-29T01:27:20;3.45;;;3.15;;
8478;SDS011;4276;49.354;6.804;2023-12-29T01:29:46;3.70;;;3.50;;
8478;SDS011;4276;49.354;6.804;2023-12-29T01:32:13;4.13;;;3.40;;
8478;SDS011;4276;49.354;6.804;2023-12-29T01:34:40;3.97;;;3.45;;
8478;SDS011;4276;49.354;6.804;2023-12-29T01:37:06;3.97;;;2.85;;
8478;SDS011;4276;49.354;6.804;2023-12-29T01:39:33;3.28;;;3.00;;
8478;SDS011;4276;49.354;6.804;2023-12-29T01:42:01;3.22;;;3.03;;
8478;SDS011;4276;49.354;6.804;2023-12-29T01:44:27;3.10;;;2.90;;
8478;SDS011;4276;49.354;6.804;2023-12-29T01:46:55;3.38;;;3.17;;
8478;SDS011;4276;49.354;6.804;2023-12-29T01:49:23;3.40;;;3.20;;
8478;SDS011;4276;49.354;6.804;2023-12-29T01:51:50;4.20;;;3.47;;
8478;SDS011;4276;49.354;6.804;2023-12-29T01:54:20;3.28;;;3.08;;
8478;SDS011;4276;49.354;6.804;2023-12-29T01:56:47;2.90;;;2.70;;
8478;SDS011;4276;49.354;6.804;2023-12-29T01:59:15;3.53;;;3.22;;
8478;SDS011;4276;49.354;6.804;2023-12-29T02:01:51;3.08;;;2.88;;
8478;SDS011;4276;49.354;6.804;2023-12-29T02:04:19;3.72;;;3.28;;
8478;SDS011;4276;49.354;6.804;2023-12-29T02:06:46;3.10;;;2.90;;
8478;SDS011;4276;49.354;6.804;2023-12-29T02:09:13;3.90;;;2.97;;
8478;SDS011;4276;49.354;6.804;2023-12-29T02:11:39;3.63;;;3.33;;
8478;SDS011;4276;49.354;6.804;2023-12-29T02:14:06;3.53;;;3.17;;
8478;SDS011;4276;49.354;6.804;2023-12-29T02:19:40;3.83;;;3.42;;
8478;SDS011;4276;49.354;6.804;2023-12-29T02:22:10;3.97;;;3.65;;
8478;SDS011;4276;49.354;6.804;2023-12-29T02:24:38;3.53;;;3.13;;
8478;SDS011;4276;49.354;6.804;2023-12-29T02:27:07;3.40;;;3.10;;
8478;SDS011;4276;49.354;6.804;2023-12-29T02:29:37;3.35;;;3.05;;
8478;SDS011;4276;49.354;6.804;2023-12-29T02:32:05;3.33;;;3.00;;
8478;SDS011;4276;49.354;6.804;2023-12-29T02:34:32;3.50;;;3.30;;
8478;SDS011;4276;49.354;6.804;2023-12-29T02:36:59;3.40;;;3.10;;
8478;SDS011;4276;49.354;6.804;2023-12-29T02:39:25;3.22;;;3.03;;
8478;SDS011;4276;49.354;6.804;2023-12-29T02:41:52;3.60;;;3.30;;
8478;SDS011;4276;49.354;6.804;2023-12-29T02:44:18;3.53;;;3.22;;
8478;SDS011;4276;49.354;6.804;2023-12-29T02:46:45;3.92;;;3.17;;
8478;SDS011;4276;49.354;6.804;2023-12-29T02:49:11;3.40;;;3.10;;
8478;SDS011;4276;49.354;6.804;2023-12-29T02:51:39;3.45;;;3.20;;
8478;SDS011;4276;49.354;6.804;2023-12-29T02:54:06;3.60;;;3.30;;
8478;SDS011;4276;49.354;6.804;2023-12-29T02:56:33;4.38;;;4.00;;
8478;SDS011;4276;49.354;6.804;2023-12-29T02:59:01;4.43;;;4.03;;
8478;SDS011;4276;49.354;6.804;2023-12-29T03:01:28;4.57;;;4.15;;
8478;SDS011;4276;49.354;6.804;2023-12-29T03:03:55;5.03;;;4.00;;
8478;SDS011;4276;49.354;6.804;2023-12-29T03:06:22;3.83;;;3.53;;
8478;SDS011;4276;49.354;6.804;2023-12-29T03:08:49;5.05;;;4.05;;
8478;SDS011;4276;49.354;6.804;2023-12-29T03:11:15;4.20;;;3.80;;
8478;SDS011;4276;49.354;6.804;2023-12-29T03:13:42;4.10;;;3.80;;
8478;SDS011;4276;49.354;6.804;2023-12-29T03:16:09;4.28;;;3.88;;
8478;SDS011;4276;49.354;6.804;2023-12-29T03:18:36;3.83;;;3.53;;
8478;SDS011;4276;49.354;6.804;2023-12-29T03:21:06;4.65;;;4.13;;
8478;SDS011;4276;49.354;6.804;2023-12-29T03:23:34;4.30;;;3.83;;
8478;SDS011;4276;49.354;6.804;2023-12-29T03:26:01;3.90;;;3.60;;
8478;SDS011;4276;49.354;6.804;2023-12-29T03:28:27;4.38;;;4.07;;
8478;SDS011;4276;49.354;6.804;2023-12-29T03:30:54;4.07;;;3.78;;
8478;SDS011;4276;49.354;6.804;2023-12-29T03:33:21;4.35;;;4.05;;
8478;SDS011;4276;49.354;6.804;2023-12-29T03:35:47;4.68;;;4.28;;
8478;SDS011;4276;49.354;6.804;2023-12-29T03:38:14;4.63;;;4.22;;
8478;SDS011;4276;49.354;6.804;2023-12-29T03:40:41;4.22;;;3.92;;
8478;SDS011;4276;49.354;6.804;2023-12-29T03:43:08;4.38;;;3.97;;
8478;SDS011;4276;49.354;6.804;2023-12-29T03:45:34;4.88;;;4.47;;
8478;SDS011;4276;49.354;6.804;2023-12-29T03:48:01;4.35;;;3.95;;
8478;SDS011;4276;49.354;6.804;2023-12-29T03:50:28;4.38;;;4.07;;
8478;SDS011;4276;49.354;6.804;2023-12-29T03:52:54;4.80;;;4.10;;
8478;SDS011;4276;49.354;6.804;2023-12-29T03:55:21;4.18;;;3.75;;
8478;SDS011;4276;49.354;6.804;2023-12-29T03:57:47;3.95;;;3.55;;
8478;SDS011;4276;49.354;6.804;2023-12-29T04:00:14;4.43;;;4.03;;
8478;SDS011;4276;49.354;6.804;2023-12-29T04:02:41;4.88;;;4.55;;
8478;SDS011;4276;49.354;6.804;2023-12-29T04:05:10;4.40;;;4.00;;
8478;SDS011;4276;49.354;6.804;2023-12-29T04:07:39;4.45;;;4.15;;
8478;SDS011;4276;49.354;6.804;2023-12-29T04:10:07;4.72;;;4.30;;
8478;SDS011;4276;49.354;6.804;2023-12-29T04:12:34;4.50;;;4.10;;
8478;SDS011;4276;49.354;6.804;2023-12-29T04:15:03;4.18;;;3.75;;
8478;SDS011;4276;49.354;6.804;2023-12-29T04:17:30;4.15;;;3.85;;
8478;SDS011;4276;49.354;6.804;2023-12-29T04:19:56;4.20;;;3.80;;
8478;SDS011;4276;49.354;6.804;2023-12-29T04:22:23;4.18;;;3.88;;
8478;SDS011;4276;49.354;6.804;2023-12-29T04:24:49;4.63;;;4.22;;
8478;SDS011;4276;49.354;6.804;2023-12-29T04:27:16;4.28;;;3.88;;
8478;SDS011;4276;49.354;6.804;2023-12-29T04:29:44;4.85;;;4.10;;
8478;SDS011;4276;49.354;6.804;2023-12-29T04:32:11;3.92;;;3.63;;
8478;SDS011;4276;49.354;6.804;2023-12-29T04:34:37;4.68;;;4.28;;
8478;SDS011;4276;49.354;6.804;2023-12-29T04:37:04;4.60;;;4.30;;
8478;SDS011;4276;49.354;6.804;2023-12-29T04:39:31;4.35;;;4.03;;
8478;SDS011;4276;49.354;6.804;2023-12-29T04:41:57;7.10;;;4.65;;
8478;SDS011;4276;49.354;6.804;2023-12-29T04:44:24;4.53;;;4.13;;
8478;SDS011;4276;49.354;6.804;2023-12-29T04:46:50;4.10;;;3.80;;
8478;SDS011;4276;49.354;6.804;2023-12-29T04:49:17;4.22;;;3.83;;
8478;SDS011;4276;49.354;6.804;2023-12-29T04:51:43;3.72;;;3.53;;
8478;SDS011;4276;49.354;6.804;2023-12-29T04:54:10;4.35;;;3.97;;
8478;SDS011;4276;49.354;6.804;2023-12-29T04:56:36;4.18;;;3.80;;
8478;SDS011;4276;49.354;6.804;2023-12-29T04:59:03;3.85;;;3.55;;
8478;SDS011;4276;49.354;6.804;2023-12-29T05:01:29;4.40;;;4.00;;
8478;SDS011;4276;49.354;6.804;2023-12-29T05:03:56;3.90;;;3.40;;
8478;SDS011;4276;49.354;6.804;2023-12-29T05:06:23;3.70;;;3.45;;
8478;SDS011;4276;49.354;6.804;2023-12-29T05:08:49;3.90;;;3.55;;
8478;SDS011;4276;49.354;6.804;2023-12-29T05:11:16;3.53;;;2.88;;
8478;SDS011;4276;49.354;6.804;2023-12-29T05:13:42;3.67;;;3.38;;
8478;SDS011;4276;49.354;6.804;2023-12-29T05:16:09;3.00;;;2.80;;
8478;SDS011;4276;49.354;6.804;2023-12-29T05:18:36;3.85;;;2.83;;
8478;SDS011;4276;49.354;6.804;2023-12-29T05:21:02;4.00;;;2.63;;
8478;SDS011;4276;49.354;6.804;2023-12-29T05:23:29;2.80;;;2.60;;
8478;SDS011;4276;49.354;6.804;2023-12-29T05:25:55;2.60;;;2.40;;
8478;SDS011;4276;49.354;6.804;2023-12-29T05:28:24;3.08;;;2.80;;
8478;SDS011;4276;49.354;6.804;2023-12-29T05:30:51;2.75;;;2.50;;
8478;SDS011;4276;49.354;6.804;2023-12-29T05:33:17;3.35;;;2.80;;
8478;SDS011;4276;49.354;6.804;2023-12-29T05:35:44;2.72;;;2.20;;
8478;SDS011;4276;49.354;6.804;2023-12-29T05:38:10;2.55;;;2.35;;
8478;SDS011;4276;49.354;6.804;2023-12-29T05:40:37;2.80;;;2.60;;
8478;SDS011;4276;49.354;6.804;2023-12-29T05:43:03;2.50;;;2.28;;
8478;SDS011;4276;49.354;6.804;2023-12-29T05:45:30;2.50;;;2.30;;
8478;SDS011;4276;49.354;6.804;2023-12-29T05:47:56;2.30;;;2.20;;
8478;SDS011;4276;49.354;6.804;2023-12-29T05:50:24;2.35;;;2.05;;
8478;SDS011;4276;49.354;6.804;2023-12-29T05:52:50;2.38;;;2.17;;
8478;SDS011;4276;49.354;6.804;2023-12-29T05:55:18;2.90;;;2.58;;
8478;SDS011;4276;49.354;6.804;2023-12-29T05:57:45;3.53;;;2.53;;
8478;SDS011;4276;49.354;6.804;2023-12-29T06:00:12;2.50;;;2.30;;
8478;SDS011;4276;49.354;6.804;2023-12-29T06:02:41;2.97;;;2.30;;
8478;SDS011;4276;49.354;6.804;2023-12-29T06:05:11;2.83;;;2.28;;
8478;SDS011;4276;49.354;6.804;2023-12-29T06:07:38;2.30;;;1.98;;
8478;SDS011;4276;49.354;6.804;2023-12-29T06:10:05;2.83;;;2.20;;
8478;SDS011;4276;49.354;6.804;2023-12-29T06:12:32;2.60;;;2.40;;
8478;SDS011;4276;49.354;6.804;2023-12-29T06:14:59;2.40;;;2.20;;
8478;SDS011;4276;49.354;6.804;2023-12-29T06:17:25;2.58;;;1.90;;
8478;SDS011;4276;49.354;6.804;2023-12-29T06:19:52;2.30;;;2.10;;
8478;SDS011;4276;49.354;6.804;2023-12-29T06:22:19;2.53;;;2.33;;
8478;SDS011;4276;49.354;6.804;2023-12-29T06:24:45;2.72;;;2.10;;
8478;SDS011;4276;49.354;6.804;2023-12-29T06:27:12;2.63;;;2.28;;
8478;SDS011;4276;49.354;6.804;2023-12-29T06:29:40;4.47;;;2.72;;
8478;SDS011;4276;49.354;6.804;2023-12-29T06:32:07;2.80;;;2.25;;
8478;SDS011;4276;49.354;6.804;2023-12-29T06:34:34;2.85;;;2.00;;
8478;SDS011;4276;49.354;6.804;2023-12-29T06:37:00;2.38;;;2.17;;
8478;SDS011;4276;49.354;6.804;2023-12-29T06:39:27;2.10;;;1.90;;
8478;SDS011;4276;49.354;6.804;2023-12-29T06:41:53;2.60;;;1.90;;
8478;SDS011;4276;49.354;6.804;2023-12-29T06:44:20;4.43;;;2.22;;
8478;SDS011;4276;49.354;6.804;2023-12-29T06:46:47;2.88;;;2.20;;
8478;SDS011;4276;49.354;6.804;2023-12-29T06:49:14;2.05;;;1.95;;
8478;SDS011;4276;49.354;6.804;2023-12-29T06:51:40;2.33;;;2.20;;
8478;SDS011;4276;49.354;6.804;2023-12-29T06:54:07;2.53;;;2.33;;
8478;SDS011;4276;49.354;6.804;2023-12-29T06:56:34;3.25;;;2.50;;
8478;SDS011;4276;49.354;6.804;2023-12-29T06:59:01;3.15;;;2.30;;
8478;SDS011;4276;49.354;6.804;2023-12-29T07:01:27;2.50;;;2.30;;
8478;SDS011;4276;49.354;6.804;2023-12-29T07:03:54;2.30;;;2.10;;
8478;SDS011;4276;49.354;6.804;2023-12-29T07:06:20;2.88;;;2.45;;
8478;SDS011;4276;49.354;6.804;2023-12-29T07:08:47;2.88;;;2.67;;
8478;SDS011;4276;49.354;6.804;2023-12-29T07:11:15;3.85;;;2.60;;
8478;SDS011;4276;49.354;6.804;2023-12-29T07:13:41;2.65;;;2.50;;
8478;SDS011;4276;49.354;6.804;2023-12-29T07:16:08;3.13;;;2.45;;
8478;SDS011;4276;49.354;6.804;2023-12-29T07:18:35;3.22;;;2.45;;
8478;SDS011;4276;49.354;6.804;2023-12-29T07:21:02;3.40;;;2.28;;
8478;SDS011;4276;49.354;6.804;2023-12-29T07:23:28;2.40;;;2.00;;
8478;SDS011;4276;49.354;6.804;2023-12-29T07:25:55;2.60;;;2.40;;
8478;SDS011;4276;49.354;6.804;2023-12-29T07:28:21;3.47;;;2.60;;
8478;SDS011;4276;49.354;6.804;2023-12-29T07:30:48;3.70;;;2.63;;
8478;SDS011;4276;49.354;6.804;2023-12-29T07:33:16;3.78;;;2.47;;
8478;SDS011;4276;49.354;6.804;2023-12-29T07:35:43;3.58;;;2.47;;
8478;SDS011;4276;49.354;6.804;2023-12-29T07:38:09;3.25;;;2.58;;
8478;SDS011;4276;49.354;6.804;2023-12-29T07:40:36;3.65;;;2.40;;
8478;SDS011;4276;49.354;6.804;2023-12-29T07:43:03;3.42;;;2.40;;
8478;SDS011;4276;49.354;6.804;2023-12-29T07:45:30;2.60;;;2.40;;
8478;SDS011;4276;49.354;6.804;2023-12-29T07:47:56;2.75;;;2.22;;
8478;SDS011;4276;49.354;6.804;2023-12-29T07:50:24;2.63;;;2.42;;
8478;SDS011;4276;49.354;6.804;2023-12-29T07:52:50;2.28;;;2.13;;
8478;SDS011;4276;49.354;6.804;2023-12-29T07:55:17;2.40;;;2.20;;
8478;SDS011;4276;49.354;6.804;2023-12-29T07:57:43;3.50;;;2.40;;
8478;SDS011;4276;49.354;6.804;2023-12-29T08:00:10;2.55;;;2.20;;
8478;SDS011;4276;49.354;6.804;2023-12-29T08:02:37;4.32;;;2.60;;
8478;SDS011;4276;49.354;6.804;2023-12-29T08:05:04;2.83;;;2.42;;
8478;SDS011;4276;49.354;6.804;2023-12-29T08:07:30;2.78;;;2.17;;
8478;SDS011;4276;49.354;6.804;2023-12-29T08:09:58;4.10;;;2.47;;
8478;SDS011;4276;49.354;6.804;2023-12-29T08:12:25;3.42;;;2.50;;
8478;SDS011;4276;49.354;6.804;2023-12-29T08:14:51;3.65;;;2.88;;
8478;SDS011;4276;49.354;6.804;2023-12-29T08:17:18;3.90;;;2.10;;
8478;SDS011;4276;49.354;6.804;2023-12-29T08:19:44;4.30;;;2.38;;
8478;SDS011;4276;49.354;6.804;2023-12-29T08:22:11;3.05;;;2.33;;
8478;SDS011;4276;49.354;6.804;2023-12-29T08:24:40;2.78;;;2.20;;
8478;SDS011;4276;49.354;6.804;2023-12-29T08:27:08;3.88;;;2.40;;
8478;SDS011;4276;49.354;6.804;2023-12-29T08:29:36;2.50;;;2.08;;
8478;SDS011;4276;49.354;6.804;2023-12-29T08:32:03;3.70;;;2.22;;
8478;SDS011;4276;49.354;6.804;2023-12-29T08:34:29;2.38;;;2.03;;
8478;SDS011;4276;49.354;6.804;2023-12-29T08:36:56;3.13;;;2.10;;
8478;SDS011;4276;49.354;6.804;2023-12-29T08:39:23;2.70;;;2.10;;
8478;SDS011;4276;49.354;6.804;2023-12-29T08:41:49;2.47;;;2.17;;
8478;SDS011;4276;49.354;6.804;2023-12-29T08:44:16;2.40;;;2.20;;
8478;SDS011;4276;49.354;6.804;2023-12-29T08:46:42;2.10;;;1.88;;
8478;SDS011;4276;49.354;6.804;2023-12-29T08:49:09;2.10;;;1.92;;
8478;SDS011;4276;49.354;6.804;2023-12-29T08:51:36;1.83;;;1.73;;
8478;SDS011;4276;49.354;6.804;2023-12-29T08:54:03;3.75;;;2.30;;
8478;SDS011;4276;49.354;6.804;2023-12-29T08:56:29;2.30;;;1.98;;
8478;SDS011;4276;49.354;6.804;2023-12-29T08:58:56;3.03;;;2.03;;
8478;SDS011;4276;49.354;6.804;2023-12-29T09:01:22;3.50;;;2.13;;
8478;SDS011;4276;49.354;6.804;2023-12-29T09:03:49;1.98;;;1.83;;
8478;SDS011;4276;49.354;6.804;2023-12-29T09:06:16;2.10;;;1.88;;
8478;SDS011;4276;49.354;6.804;2023-12-29T09:08:42;2.22;;;1.98;;
8478;SDS011;4276;49.354;6.804;2023-12-29T09:11:09;2.35;;;2.15;;
8478;SDS011;4276;49.354;6.804;2023-12-29T09:13:35;3.55;;;2.60;;
8478;SDS011;4276;49.354;6.804;2023-12-29T09:16:02;2.55;;;2.35;;
8478;SDS011;4276;49.354;6.804;2023-12-29T09:18:29;2.40;;;2.20;;
8478;SDS011;4276;49.354;6.804;2023-12-29T09:20:57;2.50;;;2.30;;
8478;SDS011;4276;49.354;6.804;2023-12-29T09:23:24;4.10;;;2.60;;
8478;SDS011;4276;49.354;6.804;2023-12-29T09:25:51;2.80;;;2.60;;
8478;SDS011;4276;49.354;6.804;2023-12-29T09:28:17;3.05;;;2.50;;
8478;SDS011;4276;49.354;6.804;2023-12-29T09:30:44;4.30;;;3.08;;
8478;SDS011;4276;49.354;6.804;2023-12-29T09:33:11;3.85;;;3.40;;
8478;SDS011;4276;49.354;6.804;2023-12-29T09:35:39;4.28;;;3.70;;
8478;SDS011;4276;49.354;6.804;2023-12-29T09:38:05;5.40;;;4.50;;
8478;SDS011;4276;49.354;6.804;2023-12-29T09:40:32;5.30;;;4.80;;
8478;SDS011;4276;49.354;6.804;2023-12-29T09:42:59;7.18;;;5.28;;
8478;SDS011;4276;49.354;6.804;2023-12-29T09:45:27;6.25;;;4.07;;
8478;SDS011;4276;49.354;6.804;2023-12-29T09:47:54;4.30;;;2.90;;
8478;SDS011;4276;49.354;6.804;2023-12-29T09:50:24;2.70;;;2.50;;
8478;SDS011;4276;49.354;6.804;2023-12-29T09:52:52;2.42;;;2.33;;
8478;SDS011;4276;49.354;6.804;2023-12-29T09:55:19;2.70;;;2.40;;
8478;SDS011;4276;49.354;6.804;2023-12-29T09:57:46;3.30;;;3.00;;
8478;SDS011;4276;49.354;6.804;2023-12-29T10:00:15;3.92;;;3.55;;
8478;SDS011;4276;49.354;6.804;2023-12-29T10:02:42;5.15;;;3.63;;
8478;SDS011;4276;49.354;6.804;2023-12-29T10:05:09;4.10;;;3.17;;
8478;SDS011;4276;49.354;6.804;2023-12-29T10:07:36;4.15;;;3.53;;
8478;SDS011;4276;49.354;6.804;2023-12-29T10:10:06;2.95;;;2.60;;
8478;SDS011;4276;49.354;6.804;2023-12-29T10:12:33;4.07;;;3.78;;
8478;SDS011;4276;49.354;6.804;2023-12-29T10:20:50;3.03;;;2.03;;
8478;SDS011;4276;49.354;6.804;2023-12-29T10:26:05;3.47;;;2.30;;
8478;SDS011;4276;49.354;6.804;2023-12-29T10:28:32;3.25;;;2.50;;
8478;SDS011;4276;49.354;6.804;2023-12-29T10:30:58;4.10;;;3.70;;
8478;SDS011;4276;49.354;6.804;2023-12-29T10:33:25;3.38;;;2.92;;
8478;SDS011;4276;49.354;6.804;2023-12-29T10:35:58;4.28;;;3.50;;
8478;SDS011;4276;49.354;6.804;2023-12-29T10:38:30;4.63;;;3.10;;
8478;SDS011;4276;49.354;6.804;2023-12-29T10:41:12;3.45;;;2.25;;
8478;SDS011;4276;49.354;6.804;2023-12-29T10:43:40;5.57;;;3.05;;
8478;SDS011;4276;49.354;6.804;2023-12-29T10:46:09;4.00;;;3.00;;
8478;SDS011;4276;49.354;6.804;2023-12-29T10:48:37;3.13;;;2.83;;
8478;SDS011;4276;49.354;6.804;2023-12-29T10:51:04;2.90;;;2.33;;
8478;SDS011;4276;49.354;6.804;2023-12-29T10:53:34;4.20;;;2.90;;
8478;SDS011;4276;49.354;6.804;2023-12-29T10:56:11;2.63;;;2.40;;
8478;SDS011;4276;49.354;6.804;2023-12-29T10:58:46;2.72;;;2.53;;
8478;SDS011;4276;49.354;6.804;2023-12-29T11:01:23;3.42;;;3.05;;
8478;SDS011;4276;49.354;6.804;2023-12-29T11:06:39;4.32;;;2.60;;
8478;SDS011;4276;49.354;6.804;2023-12-29T11:09:11;3.88;;;2.50;;
8478;SDS011;4276;49.354;6.804;2023-12-29T11:11:38;2.28;;;2.08;;
8478;SDS011;4276;49.354;6.804;2023-12-29T11:14:04;3.95;;;2.60;;
8478;SDS011;4276;49.354;6.804;2023-12-29T11:16:31;2.50;;;2.22;;
8478;SDS011;4276;49.354;6.804;2023-12-29T11:18:58;2.55;;;2.35;;
8478;SDS011;4276;49.354;6.804;2023-12-29T11:21:25;2.95;;;2.63;;
8478;SDS011;4276;49.354;6.804;2023-12-29T11:23:53;5.13;;;2.95;;
8478;SDS011;4276;49.354;6.804;2023-12-29T11:26:20;3.38;;;2.40;;
8478;SDS011;4276;49.354;6.804;2023-12-29T11:28:46;3.38;;;2.38;;
8478;SDS011;4276;49.354;6.804;2023-12-29T11:31:16;4.35;;;2.35;;
8478;SDS011;4276;49.354;6.804;2023-12-29T11:33:44;4.40;;;3.75;;
8478;SDS011;4276;49.354;6.804;2023-12-29T11:36:18;5.68;;;5.07;;
8478;SDS011;4276;49.354;6.804;2023-12-29T11:41:42;5.55;;;5.00;;
8478;SDS011;4276;49.354;6.804;2023-12-29T11:44:24;5.82;;;5.00;;
8478;SDS011;4276;49.354;6.804;2023-12-29T11:46:51;5.85;;;4.60;;
8478;SDS011;4276;49.354;6.804;2023-12-29T11:49:18;6.30;;;3.75;;
8478;SDS011;4276;49.354;6.804;2023-12-29T11:51:48;3.67;;;2.95;;
8478;SDS011;4276;49.354;6.804;2023-12-29T11:54:22;3.20;;;2.40;;
8478;SDS011;4276;49.354;6.804;2023-12-29T11:56:50;4.00;;;3.08;;
8478;SDS011;4276;49.354;6.804;2023-12-29T11:59:20;4.13;;;2.45;;
8478;SDS011;4276;49.354;6.804;2023-12-29T12:01:49;2.75;;;2.45;;
8478;SDS011;4276;49.354;6.804;2023-12-29T12:09:56;2.88;;;2.38;;
8478;SDS011;4276;49.354;6.804;2023-12-29T12:12:58;4.85;;;4.45;;
8478;SDS011;4276;49.354;6.804;2023-12-29T12:17:59;4.47;;;3.50;;
8478;SDS011;4276;49.354;6.804;2023-12-29T12:20:27;6.30;;;4.68;;
8478;SDS011;4276;49.354;6.804;2023-12-29T12:22:57;5.00;;;4.60;;
8478;SDS011;4276;49.354;6.804;2023-12-29T12:25:25;6.82;;;5.88;;
8478;SDS011;4276;49.354;6.804;2023-12-29T12:27:54;6.60;;;5.45;;
8478;SDS011;4276;49.354;6.804;2023-12-29T12:30:21;4.60;;;4.05;;
8478;SDS011;4276;49.354;6.804;2023-12-29T12:32:57;8.73;;;6.40;;
8478;SDS011;4276;49.354;6.804;2023-12-29T12:35:27;9.63;;;5.93;;
8478;SDS011;4276;49.354;6.804;2023-12-29T12:38:13;3.80;;;3.40;;
8478;SDS011;4276;49.354;6.804;2023-12-29T12:40:40;4.13;;;3.22;;
8478;SDS011;4276;49.354;6.804;2023-12-29T12:43:07;5.63;;;3.80;;
8478;SDS011;4276;49.354;6.804;2023-12-29T12:45:35;4.47;;;3.50;;
8478;SDS011;4276;49.354;6.804;2023-12-29T12:48:43;5.50;;;3.92;;
8478;SDS011;4276;49.354;6.804;2023-12-29T12:51:01;5.30;;;3.35;;
8478;SDS011;4276;49.354;6.804;2023-12-29T12:53:29;2.67;;;2.30;;
8478;SDS011;4276;49.354;6.804;2023-12-29T12:55:55;4.22;;;2.50;;
8478;SDS011;4276;49.354;6.804;2023-12-29T12:58:22;2.88;;;2.38;;
8478;SDS011;4276;49.354;6.804;2023-12-29T13:00:50;4.93;;;2.10;;
8478;SDS011;4276;49.354;6.804;2023-12-29T13:03:21;3.97;;;2.78;;
8478;SDS011;4276;49.354;6.804;2023-12-29T13:05:48;2.90;;;2.55;;
8478;SDS011;4276;49.354;6.804;2023-12-29T13:08:15;3.15;;;2.17;;
8478;SDS011;4276;49.354;6.804;2023-12-29T13:10:55;2.60;;;2.20;;
8478;SDS011;4276;49.354;6.804;2023-12-29T13:13:22;2.22;;;2.05;;
8478;SDS011;4276;49.354;6.804;2023-12-29T13:15:49;3.03;;;2.20;;
8478;SDS011;4276;49.354;6.804;2023-12-29T13:18:16;4.43;;;2.25;;
8478;SDS011;4276;49.354;6.804;2023-12-29T13:20:46;3.28;;;2.05;;
8478;SDS011;4276;49.354;6.804;2023-12-29T13:23:13;3.28;;;2.10;;
8478;SDS011;4276;49.354;6.804;2023-12-29T13:25:43;3.85;;;1.90;;
8478;SDS011;4276;49.354;6.804;2023-12-29T13:28:09;3.45;;;2.42;;
8478;SDS011;4276;49.354;6.804;2023-12-29T13:30:37;3.22;;;1.98;;
8478;SDS011;4276;49.354;6.804;2023-12-29T13:33:07;4.55;;;2.28;;
8478;SDS011;4276;49.354;6.804;2023-12-29T13:35:38;2.90;;;2.30;;
8478;SDS011;4276;49.354;6.804;2023-12-29T13:38:21;2.35;;;2.15;;
8478;SDS011;4276;49.354;6.804;2023-12-29T13:43:21;4.05;;;2.90;;
8478;SDS011;4276;49.354;6.804;2023-12-29T13:45:48;3.45;;;2.85;;
8478;SDS011;4276;49.354;6.804;2023-12-29T13:48:15;4.70;;;3.15;;
8478;SDS011;4276;49.354;6.804;2023-12-29T13:50:48;3.00;;;2.80;;
8478;SDS011;4276;49.354;6.804;2023-12-29T13:53:18;2.85;;;2.50;;
8478;SDS011;4276;49.354;6.804;2023-12-29T13:55:45;3.17;;;2.88;;
8478;SDS011;4276;49.354;6.804;2023-12-29T13:58:12;2.97;;;2.30;;
8478;SDS011;4276;49.354;6.804;2023-12-29T14:00:40;3.70;;;2.22;;
8478;SDS011;4276;49.354;6.804;2023-12-29T14:03:14;3.10;;;2.03;;
8478;SDS011;4276;49.354;6.804;2023-12-29T14:05:54;2.70;;;2.30;;
8478;SDS011;4276;49.354;6.804;2023-12-29T14:08:25;4.15;;;2.35;;
8478;SDS011;4276;49.354;6.804;2023-12-29T14:10:53;2.83;;;2.28;;
8478;SDS011;4276;49.354;6.804;2023-12-29T14:13:20;4.15;;;2.10;;
8478;SDS011;4276;49.354;6.804;2023-12-29T14:15:47;4.18;;;2.13;;
8478;SDS011;4276;49.354;6.804;2023-12-29T14:20:59;4.05;;;2.92;;
8478;SDS011;4276;49.354;6.804;2023-12-29T14:23:26;2.25;;;2.05;;
8478;SDS011;4276;49.354;6.804;2023-12-29T14:25:52;3.60;;;2.28;;
8478;SDS011;4276;49.354;6.804;2023-12-29T14:28:19;4.75;;;2.08;;
8478;SDS011;4276;49.354;6.804;2023-12-29T14:30:48;4.45;;;2.03;;
8478;SDS011;4276;49.354;6.804;2023-12-29T14:33:15;3.25;;;2.10;;
8478;SDS011;4276;49.354;6.804;2023-12-29T14:35:42;4.07;;;2.60;;
8478;SDS011;4276;49.354;6.804;2023-12-29T14:38:08;4.28;;;2.45;;
8478;SDS011;4276;49.354;6.804;2023-12-29T14:40:37;5.93;;;3.58;;
8478;SDS011;4276;49.354;6.804;2023-12-29T14:43:04;5.50;;;4.47;;
8478;SDS011;4276;49.354;6.804;2023-12-29T14:45:31;5.47;;;3.42;;
8478;SDS011;4276;49.354;6.804;2023-12-29T14:47:58;6.05;;;4.70;;
8478;SDS011;4276;49.354;6.804;2023-12-29T14:50:27;4.60;;;2.90;;
8478;SDS011;4276;49.354;6.804;2023-12-29T14:52:54;7.38;;;5.55;;
8478;SDS011;4276;49.354;6.804;2023-12-29T14:55:20;10.38;;;8.70;;
8478;SDS011;4276;49.354;6.804;2023-12-29T14:57:47;3.40;;;3.10;;
8478;SDS011;4276;49.354;6.804;2023-12-29T15:00:14;3.35;;;2.53;;
8478;SDS011;4276;49.354;6.804;2023-12-29T15:02:42;3.50;;;2.13;;
8478;SDS011;4276;49.354;6.804;2023-12-29T15:05:09;4.05;;;2.35;;
8478;SDS011;4276;49.354;6.804;2023-12-29T15:07:36;2.83;;;2.58;;
8478;SDS011;4276;49.354;6.804;2023-12-29T15:10:03;2.70;;;2.28;;
8478;SDS011;4276;49.354;6.804;2023-12-29T15:12:29;3.90;;;2.40;;
8478;SDS011;4276;49.354;6.804;2023-12-29T15:14:57;4.30;;;2.38;;
8478;SDS011;4276;49.354;6.804;2023-12-29T15:17:23;3.40;;;2.20;;
8478;SDS011;4276;49.354;6.804;2023-12-29T15:19:50;3.60;;;2.15;;
8478;SDS011;4276;49.354;6.804;2023-12-29T15:22:16;5.00;;;2.47;;
8478;SDS011;4276;49.354;6.804;2023-12-29T15:24:43;4.93;;;2.17;;
8478;SDS011;4276;49.354;6.804;2023-12-29T15:27:10;3.80;;;1.90;;
8478;SDS011;4276;49.354;6.804;2023-12-29T15:29:37;3.38;;;2.63;;
8478;SDS011;4276;49.354;6.804;2023-12-29T15:32:03;3.80;;;2.20;;
8478;SDS011;4276;49.354;6.804;2023-12-29T15:34:30;3.03;;;1.95;;
8478;SDS011;4276;49.354;6.804;2023-12-29T15:36:57;3.00;;;2.30;;
8478;SDS011;4276;49.354;6.804;2023-12-29T15:39:23;2.22;;;1.98;;
8478;SDS011;4276;49.354;6.804;2023-12-29T15:41:50;3.85;;;2.20;;
8478;SDS011;4276;49.354;6.804;2023-12-29T15:44:16;2.35;;;2.15;;
8478;SDS011;4276;49.354;6.804;2023-12-29T15:46:43;3.05;;;2.25;;
8478;SDS011;4276;49.354;6.804;2023-12-29T15:49:09;5.95;;;2.10;;